Flight Track Log - Related Links

Times and Time Zones

All times are in EDT time to prevent confusion due to time zone crossing. See the UAL822 flight status page for this flight to view local times or setup timezone preferences in your user account.

Time Position Orientation Groundspeed Altitude Reporting Facility
EDT Latitude Longitude Course Direction KTS MPH feet Rate Location/Type
Sat 10:11:45 PM 39.8775 -104.5783 72° East 187 215 6,800  Level Denver Center
Sat 10:12:47 PM 39.8764 -104.4728 91° East 249 287 8,200 1,452 Climbing Denver Center
Sat 10:13:00 PM 39.8667 -104.2140 90° East  Level FlightAware Approximate
Sat 10:13:49 PM 39.8758 -104.3708 90° East 279 321 9,800  Level Denver Center
Sat 10:14:00 PM 39.8667 -104.0627 90° East  Level FlightAware Approximate
Sat 10:14:49 PM 39.8775 -104.2533 89° East 323 372 13,000  Level Denver Center
Sat 10:15:00 PM 39.8667 -103.9114 90° East  Level FlightAware Approximate
Sat 10:15:51 PM 39.8794 -104.1172 89° East 353 406 15,800  Level Denver Center
Sat 10:16:00 PM 39.8761 -103.7621 72° East  Level FlightAware Approximate
Sat 10:16:52 PM 39.8803 -103.9806 90° East 379 436 19,200  Level Denver Center
Sat 10:17:54 PM 39.8822 -103.8383 89° East 397 457 21,900 2,634 Climbing Denver Center
Sat 10:18:55 PM 39.8869 -103.6908 88° East 399 459 24,600 1,918 Climbing Denver Center
Sat 10:19:56 PM 39.9056 -103.5392 81° East 424 488 25,800 1,073 Climbing Denver Center
Sat 10:20:58 PM 39.9244 -103.3739 81° East 458 527 26,800 1,171 Climbing Denver Center
Sat 10:21:59 PM 39.9444 -103.2058 81° East 469 540 28,200 836 Climbing Denver Center
Sat 10:23:00 PM 39.9628 -103.0317 82° East 484 557 28,500 780 Climbing Denver Center
Sat 10:24:02 PM 39.9867 -102.8175 82° East 497 572 29,800 878 Climbing Denver Center
Sat 10:25:03 PM 40.0058 -102.6431 82° East 504 580 30,300 829 Climbing Denver Center
Sat 10:26:05 PM 40.0233 -102.4672 83° East 510 587 31,500 1,220 Climbing Denver Center
Sat 10:27:06 PM 40.0447 -102.2622 82° East 512 589 32,800 1,230 Climbing Denver Center
Sat 10:28:07 PM 40.0625 -102.0881 82° East 508 585 34,000 1,073 Climbing Denver Center
Sat 10:29:09 PM 40.0822 -101.8897 83° East 495 570 35,000 488 Climbing Denver Center
Sat 10:30:10 PM 40.0972 -101.7306 83° East 468 539 35,000  Level Denver Center
Sat 10:31:12 PM 40.1136 -101.5658 83° East 477 549 35,000  Level Denver Center
Sat 10:32:25 PM 40.1322 -101.3686 83° East 490 564 35,000  Level Denver Center
Sat 10:33:27 PM 40.1547 -101.1400 83° East 499 574 35,000  Level Denver Center
Sat 10:34:28 PM 40.1694 -100.9667 84° East 504 580 35,000  Level Denver Center
Sat 10:35:29 PM 40.1858 -100.7931 83° East 505 581 35,000  Level Denver Center
Sat 10:36:31 PM 40.2053 -100.5917 83° East 504 580 35,000  Level Denver Center
Sat 10:37:32 PM 40.2383 -100.4219 76° East 506 582 35,000  Level Denver Center
Sat 10:38:33 PM 40.2786 -100.2269 75° East 501 577 35,000  Level Denver Center
Sat 10:39:34 PM 40.3117 -100.0611 75° East 495 570 35,000  Level Denver Center
Sat 10:40:36 PM 40.3450 -99.8947 75° East 495 570 35,000  Level Denver Center
Sat 10:41:37 PM 40.3861 -99.6889 75° East 499 574 35,000  Level Denver Center
Sat 10:42:38 PM 40.4200 -99.5128 76° East 500 575 35,000  Level Denver Center
Sat 10:43:39 PM 40.4544 -99.3361 76° East 502 578 35,000  Level Denver Center
Sat 10:44:41 PM 40.4878 -99.1597 76° East 501 577 35,000  Level Denver Center
Sat 10:45:47 PM 40.5208 -98.9853 76° East 500 575 35,000  Level Minneapolis Center
Sat 10:46:48 PM 40.5608 -98.7756 76° East 497 572 35,000  Level Minneapolis Center
Sat 10:47:49 PM 40.5939 -98.6019 76° East 495 570 35,000  Level Minneapolis Center
Sat 10:49:02 PM 40.6325 -98.3917 76° East 496 571 35,000  Level Minneapolis Center
Sat 10:50:03 PM 40.6644 -98.2150 77° East 498 573 35,000  Level Minneapolis Center
Sat 10:51:16 PM 40.7014 -98.0072 77° East 491 565 35,000  Level Minneapolis Center
Sat 10:52:17 PM 40.7336 -97.8314 76° East 494 568 35,000  Level Minneapolis Center
Sat 10:53:18 PM 40.7644 -97.6544 77° East 496 571 35,000  Level Minneapolis Center
Sat 10:54:19 PM 40.7953 -97.4794 77° East 493 567 35,000  Level Minneapolis Center
Sat 10:55:19 PM 40.8297 -97.2861 77° East 491 565 35,000  Level Minneapolis Center
Sat 10:56:20 PM 40.8594 -97.1092 77° East 494 568 35,000  Level Minneapolis Center
Sat 10:57:21 PM 40.8894 -96.9350 77° East 490 564 35,000  Level Minneapolis Center
Sat 10:58:22 PM 40.9186 -96.7608 77° East 488 562 35,000  Level Minneapolis Center
Sat 10:59:23 PM 40.9339 -96.5839 83° East 487 560 35,000  Level Minneapolis Center
Sat 11:00:24 PM 40.9428 -96.4078 86° East 485 558 35,000  Level Minneapolis Center
Sat 11:01:25 PM 40.9539 -96.2306 85° East 487 560 35,000  Level Minneapolis Center
Sat 11:02:25 PM 40.9647 -96.0539 85° East 487 560 35,000  Level Minneapolis Center
Sat 11:03:26 PM 40.9744 -95.8767 86° East 489 563 35,000  Level Minneapolis Center
Sat 11:04:27 PM 40.9867 -95.6617 86° East 492 566 35,000  Level Minneapolis Center
Sat 11:05:28 PM 40.9964 -95.4822 86° East 493 567 35,000  Level Minneapolis Center
Sat 11:06:28 PM 41.0044 -95.3403 86° East 490 564 35,000  Level Minneapolis Center
Sat 11:07:29 PM 41.0161 -95.1269 86° East 487 560 35,000  Level Minneapolis Center
Sat 11:08:30 PM 41.0239 -94.9472 87° East 490 564 35,000  Level Minneapolis Center
Sat 11:09:31 PM 41.0325 -94.7681 86° East 490 564 35,000  Level Minneapolis Center
Sat 11:10:32 PM 41.0406 -94.5875 87° East 493 567 35,000  Level Minneapolis Center
Sat 11:11:33 PM 41.0481 -94.4181 87° East 492 566 35,000  Level Minneapolis Center
Sat 11:12:33 PM 41.0553 -94.2389 87° East 491 565 35,000  Level Minneapolis Center
Sat 11:13:34 PM 41.0628 -94.0625 87° East 487 560 35,000  Level Minneapolis Center
Sat 11:14:35 PM 41.0686 -93.9197 87° East 487 560 35,000  Level Minneapolis Center
Sat 11:15:36 PM 41.0789 -93.6711 87° East 486 559 35,000  Level Minneapolis Center
Sat 11:16:37 PM 41.0856 -93.4936 87° East 486 559 35,000  Level Minneapolis Center
Sat 11:17:37 PM 41.0917 -93.3147 87° East 487 560 35,000  Level Minneapolis Center
Sat 11:18:50 PM 41.1225 -93.1436 76° East 485 558 35,000  Level Minneapolis Center
Sat 11:19:30 PM 41.1658 -93.0153 66° East 475 547 35,000  Level Chicago Center
Sat 11:20:31 PM 41.2267 -92.8572 63° Northeast 481 554 35,000  Level Chicago Center
Sat 11:21:31 PM 41.2886 -92.7000 62° Northeast 483 556 35,000  Level Chicago Center
Sat 11:22:33 PM 41.3050 -92.5294 83° East 473 544 35,000  Level Chicago Center
Sat 11:23:32 PM 41.2903 -92.3403 96° East 463 533 35,000  Level Chicago Center
Sat 11:24:33 PM 41.2756 -92.1703 97° East 469 540 35,000  Level Chicago Center
Sat 11:25:34 PM 41.2611 -91.9981 96° East 474 545 35,000  Level Chicago Center
Sat 11:26:34 PM 41.2472 -91.8283 96° East 469 540 35,000  Level Chicago Center
Sat 11:27:35 PM 41.2333 -91.6633 96° East 465 535 35,000  Level Chicago Center
Sat 11:28:35 PM 41.2164 -91.4897 97° East 471 542 35,000  Level Chicago Center
Sat 11:29:36 PM 41.2014 -91.3172 97° East 472 543 35,000  Level Chicago Center
Sat 11:30:36 PM 41.1867 -91.1467 96° East 467 537 35,000  Level Chicago Center
Sat 11:31:37 PM 41.1692 -90.9736 98° East 471 542 35,000  Level Chicago Center
Sat 11:32:37 PM 41.1531 -90.8019 97° East 469 540 35,000  Level Chicago Center
Sat 11:33:38 PM 41.1369 -90.6314 97° East 466 536 35,000  Level Chicago Center
Sat 11:34:38 PM 41.1203 -90.4564 97° East 475 547 35,000  Level Chicago Center
Sat 11:35:39 PM 41.1036 -90.2814 97° East 477 549 35,000  Level Chicago Center
Sat 11:36:39 PM 41.0858 -90.1086 98° East 472 543 35,000  Level Chicago Center
Sat 11:37:40 PM 41.0678 -89.9347 98° East 474 545 35,000  Level Chicago Center
Sat 11:38:40 PM 41.0506 -89.7639 98° East 465 535 35,000  Level Chicago Center
Sat 11:39:40 PM 41.0331 -89.5942 98° East 461 531 35,000  Level Chicago Center
Sat 11:40:41 PM 41.0142 -89.4233 98° East 466 536 35,000  Level Chicago Center
Sat 11:41:41 PM 40.9947 -89.2575 99° East 456 525 35,000  Level Chicago Center
Sat 11:42:42 PM 40.9758 -89.0900 98° East 458 527 35,000  Level Chicago Center
Sat 11:43:42 PM 40.9564 -88.9233 99° East 457 526 35,000  Level Chicago Center
Sat 11:44:43 PM 40.9347 -88.7356 99° East 455 524 35,000  Level Chicago Center
Sat 11:45:43 PM 40.9167 -88.5725 98° East 457 526 35,000  Level Chicago Center
Sat 11:46:44 PM 40.8981 -88.4083 98° East 458 527 35,000  Level Chicago Center
Sat 11:47:44 PM 40.8789 -88.2456 99° East 458 527 35,000  Level Chicago Center
Sat 11:48:44 PM 40.8589 -88.0814 99° East 461 531 35,000  Level Chicago Center
Sat 11:49:45 PM 40.8403 -87.9181 99° East 458 527 35,000  Level Chicago Center
Sat 11:50:45 PM 40.8197 -87.7561 99° East 455 524 35,000  Level Chicago Center
Sat 11:51:45 PM 40.8008 -87.5947 99° East 451 519 35,000  Level Chicago Center
Sat 11:52:46 PM 40.7764 -87.4017 99° East 450 518 35,000  Level Chicago Center
Sat 11:53:46 PM 40.7550 -87.2408 100° East 451 519 35,000  Level Chicago Center
Sat 11:54:47 PM 40.7339 -87.0786 100° East 452 520 35,000  Level Chicago Center
Sat 11:55:47 PM 40.7136 -86.9183 99° East 451 519 35,000  Level Chicago Center
Sat 11:56:47 PM 40.6917 -86.7542 100° East 449 517 35,000  Level Chicago Center
Sat 11:57:48 PM 40.6700 -86.5925 100° East 448 516 35,000  Level Chicago Center
Sat 11:58:48 PM 40.6489 -86.4314 100° East 446 513 35,000  Level Chicago Center
Sat 11:59:49 PM 40.6269 -86.2692 100° East 448 516 35,000  Level Chicago Center
Sun 12:00:49 AM 40.6047 -86.1067 100° East 451 519 35,000  Level Chicago Center
Sun 12:01:50 AM 40.5828 -85.9444 100° East 450 518 35,000  Level Chicago Center
Sun 12:02:50 AM 40.5608 -85.7831 100° East 449 517 35,000  Level Chicago Center
Sun 12:03:50 AM 40.5378 -85.6214 101° East 450 518 35,000  Level Chicago Center
Sun 12:04:51 AM 40.5142 -85.4603 101° East 449 517 35,000  Level Chicago Center
Sun 12:05:51 AM 40.4908 -85.3008 101° East 446 513 35,000  Level Chicago Center
Sun 12:06:52 AM 40.4683 -85.1428 101° East 443 510 35,000  Level Chicago Center
Sun 12:07:43 AM 40.4475 -85.0147 102° East 441 507 35,000  Level Indianapolis Center
Sun 12:08:44 AM 40.4258 -84.8633 101° East 441 507 35,000  Level Indianapolis Center
Sun 12:09:44 AM 40.4008 -84.7058 102° East 439 505 35,000  Level Indianapolis Center
Sun 12:10:44 AM 40.3775 -84.5478 101° East 437 503 35,000  Level Indianapolis Center
Sun 12:11:44 AM 40.3528 -84.3922 102° East 432 497 35,000  Level Indianapolis Center
Sun 12:12:44 AM 40.3289 -84.2361 101° East 432 497 35,000  Level Indianapolis Center
Sun 12:13:45 AM 40.3050 -84.0825 101° East 429 494 35,000  Level Indianapolis Center
Sun 12:14:45 AM 40.2803 -83.9261 102° East 431 496 35,000  Level Indianapolis Center
Sun 12:15:45 AM 40.2564 -83.7711 101° East 431 496 35,000  Level Indianapolis Center
Sun 12:16:45 AM 40.2314 -83.6139 102° East 434 499 35,000  Level Indianapolis Center
Sun 12:17:46 AM 40.2056 -83.4550 102° East 438 504 35,000  Level Indianapolis Center
Sun 12:18:46 AM 40.1792 -83.2978 102° East 435 501 35,000  Level Indianapolis Center
Sun 12:19:46 AM 40.1528 -83.1403 102° East 436 502 35,000  Level Indianapolis Center
Sun 12:20:46 AM 40.1264 -82.9842 102° East 434 499 35,000  Level Indianapolis Center
Sun 12:21:47 AM 40.1000 -82.8267 102° East 438 504 35,000  Level Indianapolis Center
Sun 12:22:47 AM 40.0728 -82.6706 103° East 437 503 35,000  Level Indianapolis Center
Sun 12:23:47 AM 40.0467 -82.5147 102° East 436 502 35,000  Level Indianapolis Center
Sun 12:24:47 AM 40.0247 -82.3853 102° East 434 499 35,000  Level Indianapolis Center
Sun 12:25:48 AM 39.9978 -82.2314 103° East 433 498 35,000  Level Indianapolis Center
Sun 12:26:48 AM 39.9703 -82.0750 103° East 436 502 35,000  Level Indianapolis Center
Sun 12:27:48 AM 39.9425 -81.9183 103° East 439 505 35,000  Level Indianapolis Center
Sun 12:28:48 AM 39.9150 -81.7631 103° East 438 504 35,000  Level Indianapolis Center
Sun 12:29:48 AM 39.8869 -81.6081 103° East 436 502 35,000  Level Indianapolis Center
Sun 12:30:49 AM 39.8597 -81.4525 103° East 439 505 35,000  Level Indianapolis Center
Sun 12:31:49 AM 39.8353 -81.3053 102° East 438 504 35,000  Level Indianapolis Center
Sun 12:32:49 AM 39.8075 -81.1500 103° East 438 504 35,000  Level Indianapolis Center
Sun 12:33:49 AM 39.7806 -80.9936 103° East 442 509 35,000  Level Indianapolis Center
Sun 12:34:50 AM 39.7539 -80.8378 103° East 442 509 35,000  Level Indianapolis Center
Sun 12:35:50 AM 39.7250 -80.6819 104° East 441 507 35,000  Level Indianapolis Center
Sun 12:36:50 AM 39.6964 -80.5242 103° East 447 514 35,000  Level Indianapolis Center
Sun 12:37:50 AM 39.6686 -80.3664 103° East 448 516 35,000  Level Indianapolis Center
Sun 12:38:51 AM 39.6403 -80.2069 103° East 451 519 35,000  Level Indianapolis Center
Sun 12:39:24 AM 39.6247 -80.1153 102° East 440 506 35,000  Level Washington Center
Sun 12:40:27 AM 39.5972 -79.9572 103° East 440 506 35,000  Level Washington Center
Sun 12:41:25 AM 39.5653 -79.7964 104° East 445 512 35,000 -103 Level Washington Center
Sun 12:42:24 AM 39.5333 -79.6358 104° East 445 512 34,800 -1,765 Descending Washington Center
Sun 12:43:24 AM 39.4989 -79.4753 105° East 457 526 31,500 -3,200 Descending Washington Center
Sun 12:44:24 AM 39.4647 -79.3094 105° East 462 532 28,400 -3,223 Descending Washington Center
Sun 12:45:25 AM 39.4261 -79.1328 106° East 462 532 25,000 -3,174 Descending Washington Center
Sun 12:46:25 AM 39.3892 -78.9753 107° East 462 532 22,000 -2,622 Descending Washington Center
Sun 12:47:24 AM 39.3536 -78.8206 107° East 452 520 19,800 -2,370 Descending Washington Center
Sun 12:48:24 AM 39.3242 -78.6769 105° East 439 505 17,300 -2,529 Descending Washington Center
Sun 12:49:25 AM 39.2922 -78.5389 107° East 416 479 14,700 -2,400 Descending Washington Center
Sun 12:50:24 AM 39.2642 -78.4064 105° East 396 456 12,500 -1,916 Descending Washington Center
Sun 12:51:24 AM 39.2461 -78.2797 100° East 376 433 10,900 -1,150 Descending Washington Center
Sun 12:52:24 AM 39.2319 -78.1586 99° East 353 406 10,200 -1,150 Descending Washington Center
Sun 12:53:24 AM 39.2217 -78.0564 97° East 320 368 8,600 -1,438 Descending Washington Center
Sun 12:54:25 AM 39.2069 -77.9567 101° East 292 336 7,300 -1,300 Descending Washington Center
Sun 12:55:24 AM 39.1964 -77.8600 98° East 277 319 6,000 -1,059 Descending Washington Center
Sun 12:56:24 AM 39.1836 -77.7633 100° East 272 313 5,200 -904 Descending Washington Center
Sun 12:58:10 AM 39.1500 -77.6167 106° East 269 310 3,500 -962 Descending Potomac TRACON

Login

Don't have an account? Register now (free) for customized features, flight alerts, and more!